Aérodrome :
LOGIN :

S'inscrire | Disclaimer

   EN    FR    IT 

 










Légende :    VFR   VFR Marginal   IFR   IFR Intensif   IFR Très Intensif
Visi : 
Plafond : 
>= 8 km
>= 3000ft
5 à 8 km
1000 à 3000 ft
1500m à 5 km
500 à 1000 ft
800 à 1500m
200 à 500 ft
< 800m
< 200 ft
Symboles :   Orages  Brouillard  Fortes neiges  Fortes précipitations  Vent > 20 kt
SIGMETs :   Divers  Orages  Givrage  Turbulence  Onde Orograph.  Cendres Volcan.






- Altitude de l'aérodrome : 47 ft
- Code IATA : BDS


LIBR - Casale Arpt. Brindisi

DERNIER METAR :
  • 270720Z 33005KT 300V030 CAVOK 24/18 Q1017

METARs EXPIRÉS :
  • 270650Z 26004KT CAVOK 22/16 Q1018
  • 270620Z 20004KT 180V240 CAVOK 21/20 Q1017
  • 270550Z 17003KT CAVOK 20/19 Q1017
  • 270520Z 23004KT CAVOK 18/17 Q1017
  • 270450Z 22002KT CAVOK 19/17 Q1017

TAF TAF LIBR
Valide du 27 à 06h jusqu'au 28 à 06h UTC


270500Z 2706/2806 VRB05KT 9999 FEW040
BECMG 2708/2710 06012KT
TEMPO 2709/2712 RA
BECMG 2716/2718 VRB05KT



MET'MAP, la Météo Aéronautique d'un coup d'oeil ! - Copyright ORBIFLY Décembre 2007 - Disclaimer

ORBIFLY MET'MAP TEAM :

Programmation & Développement : Alexandra Zaïnal
Sur une idée originale de : Baudouin d'Aumeries
Assistance à la programmation : Marc-Olivier Méhu
Soutien technique & logistique : Manuel Goepfert

Contact : metmap@orbifly.com




SOURCES & CREDITS :

   NOAA